createdAt,value
2022-11-18T00:01:35.739Z,98287.39
2022-11-18T00:04:41.685Z,98293.52
2022-11-18T00:07:47.928Z,98302.36
2022-11-18T00:10:53.788Z,98322.33
2022-11-18T00:14:18.401Z,98330.13
2022-11-18T00:17:23.929Z,98363.59
2022-11-18T00:20:28.907Z,98363.31
2022-11-18T00:23:35.247Z,98372.38
2022-11-18T00:26:43.453Z,98371.84
2022-11-18T00:29:48.688Z,98397.86
2022-11-18T00:32:54.409Z,98406.92
2022-11-18T00:36:00.817Z,98417.22
2022-11-18T00:39:06.314Z,98421.79
2022-11-18T00:42:30.265Z,98416.72
2022-11-18T00:45:37.062Z,98438.28
2022-11-18T00:48:42.142Z,98431.52
2022-11-18T00:51:47.927Z,98440.63
2022-11-18T00:54:55.045Z,98451.84
2022-11-18T00:58:02.909Z,98454.60
2022-11-18T01:01:08.619Z,98462.03
2022-11-18T01:04:00.191Z,98470.14
2022-11-18T01:07:06.054Z,98466.41
2022-11-18T01:10:12.616Z,98467.52
2022-11-18T01:13:30.660Z,98460.08
2022-11-18T01:16:39.612Z,98460.02
2022-11-18T01:19:45.548Z,98460.95
2022-11-18T01:22:51.026Z,98468.98
2022-11-18T01:25:57.846Z,98458.97
2022-11-18T01:29:04.284Z,98457.00
2022-11-18T01:32:24.010Z,98453.59
2022-11-18T01:35:17.611Z,98458.71
2022-11-18T01:38:25.451Z,98465.06
2022-11-18T01:41:31.980Z,98465.39
2022-11-18T01:45:12.564Z,98473.64
2022-11-18T01:48:46.307Z,98476.31
2022-11-18T01:52:06.424Z,98482.72
2022-11-18T01:55:11.417Z,98490.43
2022-11-18T01:58:25.101Z,98503.92
2022-11-18T02:01:30.424Z,98507.72
2022-11-18T02:04:37.293Z,98515.93
2022-11-18T02:07:43.912Z,98534.17
2022-11-18T02:10:50.176Z,98540.78
2022-11-18T02:13:56.197Z,98539.55
2022-11-18T02:17:29.691Z,98557.59
2022-11-18T02:20:44.674Z,98561.30
2022-11-18T02:24:11.451Z,98566.27
2022-11-18T02:27:23.093Z,98574.25
2022-11-18T02:30:23.730Z,98583.89
2022-11-18T02:33:39.139Z,98594.28
2022-11-18T02:36:53.177Z,98605.42
2022-11-18T02:40:04.338Z,98626.61
2022-11-18T02:43:42.387Z,98645.03
2022-11-18T02:46:49.850Z,98671.13
2022-11-18T02:50:01.525Z,98685.00
2022-11-18T02:53:09.506Z,98690.30
2022-11-18T02:56:07.882Z,98708.78
2022-11-18T02:59:14.089Z,98707.31
2022-11-18T03:02:19.524Z,98711.45
2022-11-18T03:05:42.618Z,98718.45
2022-11-18T03:08:53.199Z,98714.34
2022-11-18T03:12:22.966Z,98712.61
2022-11-18T03:15:39.764Z,98714.16
2022-11-18T03:18:55.777Z,98729.06
2022-11-18T03:22:20.982Z,98731.80
2022-11-18T03:25:51.836Z,98723.14
2022-11-18T03:29:20.951Z,98704.16
2022-11-18T03:32:33.476Z,98723.59
2022-11-18T03:35:34.885Z,98726.28
2022-11-18T03:38:43.745Z,98750.53
2022-11-18T03:41:53.108Z,98762.26
2022-11-18T03:45:02.809Z,98769.20
2022-11-18T03:48:21.455Z,98783.25
2022-11-18T03:51:17.229Z,98770.05
2022-11-18T03:54:14.719Z,98753.93
2022-11-18T03:57:12.146Z,98776.36
2022-11-18T04:00:09.528Z,98794.53
2022-11-18T04:02:56.546Z,98796.63
2022-11-18T04:05:51.360Z,98815.63
2022-11-18T04:08:41.741Z,98825.36
2022-11-18T04:12:01.094Z,98833.64
2022-11-18T04:15:02.548Z,98840.77
2022-11-18T04:18:07.509Z,98826.73
2022-11-18T04:21:13.196Z,98834.03
2022-11-18T07:43:20.811Z,99202.13
2022-11-18T07:46:36.869Z,99200.46
2022-11-18T07:49:42.132Z,99207.30
2022-11-18T07:52:48.979Z,99218.87
2022-11-18T07:55:57.516Z,99221.23
2022-11-18T07:59:02.572Z,99221.73
2022-11-18T08:02:08.821Z,99217.61
2022-11-18T08:05:17.947Z,99232.20
2022-11-18T08:08:21.864Z,99241.84
2022-11-18T08:11:29.958Z,99251.84
2022-11-18T08:14:37.035Z,99275.94
2022-11-18T08:17:44.418Z,99297.98
2022-11-18T08:20:51.390Z,99283.52
2022-11-18T08:23:58.205Z,99282.23
2022-11-18T08:27:03.475Z,99291.17
2022-11-18T08:30:08.805Z,99305.80
2022-11-18T08:33:13.666Z,99308.83
2022-11-18T08:36:28.989Z,99290.66
2022-11-18T08:39:35.891Z,99296.91
2022-11-18T08:42:41.681Z,99308.09
2022-11-18T08:45:48.691Z,99312.93
2022-11-18T08:48:54.526Z,99313.27
2022-11-18T08:51:59.267Z,99309.63
2022-11-18T08:55:05.757Z,99312.23
2022-11-18T08:58:11.984Z,99316.54
2022-11-18T09:01:21.224Z,99323.64
2022-11-18T09:04:26.168Z,99326.95
2022-11-18T09:07:33.446Z,99312.83
2022-11-18T09:10:40.764Z,99314.74
2022-11-18T09:14:39.015Z,99318.61
2022-11-18T09:16:53.492Z,99332.64
2022-11-18T09:19:59.015Z,99331.38
2022-11-18T09:23:04.630Z,99336.40
2022-11-18T09:26:21.475Z,99352.59
2022-11-18T09:29:29.254Z,99375.09
2022-11-18T09:32:34.721Z,99389.27
2022-11-18T09:35:40.695Z,99400.36
2022-11-18T09:38:52.937Z,99408.03
2022-11-18T09:42:07.858Z,99411.51
2022-11-18T09:45:32.273Z,99413.01
2022-11-18T09:48:57.419Z,99415.78
2022-11-18T09:52:04.974Z,99413.66
2022-11-18T09:55:10.466Z,99420.45
2022-11-18T09:58:16.713Z,99435.66
2022-11-18T10:01:31.305Z,99432.39
2022-11-18T10:04:37.361Z,99431.19
2022-11-18T10:07:59.575Z,99428.61
2022-11-18T10:11:37.296Z,99447.07
2022-11-18T10:15:08.522Z,99458.23
2022-11-18T10:19:04.326Z,99451.00
2022-11-18T10:25:18.375Z,99457.36
2022-11-18T10:28:39.580Z,99459.58
2022-11-18T10:31:45.554Z,99473.08
2022-11-18T10:34:51.637Z,99463.67
2022-11-18T10:38:12.217Z,99457.31
2022-11-18T10:41:10.776Z,99459.99
2022-11-18T10:44:11.894Z,99460.85
2022-11-18T10:47:42.173Z,99451.98
2022-11-18T10:50:56.213Z,99448.80
2022-11-18T10:54:01.318Z,99458.98
2022-11-18T10:57:11.989Z,99460.23
2022-11-18T11:00:15.294Z,99462.34
2022-11-18T11:03:43.590Z,99461.41
2022-11-18T11:06:52.226Z,99463.38
2022-11-18T11:09:57.657Z,99464.63
2022-11-18T11:13:13.755Z,99478.68
2022-11-18T11:16:24.891Z,99482.48
2022-11-18T11:19:27.472Z,99484.19
2022-11-18T11:22:33.079Z,99485.86
2022-11-18T11:29:31.558Z,99488.92
2022-11-18T11:33:03.079Z,99495.75
2022-11-18T11:36:35.192Z,99493.61
2022-11-18T11:39:53.988Z,99495.39
2022-11-18T11:43:29.877Z,99516.42
2022-11-18T11:47:30.252Z,99513.11
2022-11-18T11:51:05.439Z,99514.66
2022-11-18T11:54:42.589Z,99513.80
2022-11-18T11:58:20.724Z,99514.88
2022-11-18T12:01:50.550Z,99522.74
2022-11-18T12:05:12.240Z,99529.20
2022-11-18T12:08:31.896Z,99517.70
2022-11-18T12:12:21.068Z,99514.59
2022-11-18T12:16:00.747Z,99515.50
2022-11-18T12:19:22.681Z,99524.64
2022-11-18T12:22:28.226Z,99525.41
2022-11-18T12:26:03.895Z,99534.41
2022-11-18T12:29:10.105Z,99543.52
2022-11-18T12:32:14.640Z,99547.21
2022-11-18T12:35:25.845Z,99550.28
2022-11-18T12:38:45.824Z,99552.18
2022-11-18T12:42:31.514Z,99553.35
2022-11-18T12:46:00.809Z,99553.78
2022-11-18T12:49:06.214Z,99548.70
2022-11-18T12:52:22.120Z,99555.91
2022-11-18T12:55:41.645Z,99561.92
2022-11-18T12:58:47.433Z,99566.27
2022-11-18T13:01:53.499Z,99573.24
2022-11-18T13:04:59.440Z,99578.88
2022-11-18T13:08:27.072Z,99591.00
2022-11-18T13:11:50.173Z,99597.76
2022-11-18T16:28:29.700Z,99687.06
2022-11-18T16:55:00.012Z,99694.45
2022-11-18T16:58:05.960Z,99697.69
2022-11-18T17:01:23.480Z,99705.83
2022-11-18T17:04:20.040Z,99696.55
2022-11-18T17:07:25.994Z,99703.33
2022-11-18T17:10:32.203Z,99709.97
2022-11-18T17:13:38.841Z,99708.38
2022-11-18T17:16:45.140Z,99724.55
2022-11-18T17:19:51.325Z,99722.91
2022-11-18T17:22:57.219Z,99728.31
2022-11-18T17:26:02.934Z,99727.25
2022-11-18T17:29:11.766Z,99725.80
2022-11-18T17:32:17.348Z,99735.19
2022-11-18T17:35:25.281Z,99737.39
2022-11-18T17:38:31.758Z,99734.94
2022-11-18T17:41:56.688Z,99725.70
2022-11-18T17:45:02.702Z,99725.55
2022-11-18T17:48:08.760Z,99729.84
2022-11-18T17:51:19.810Z,99729.84
2022-11-18T17:54:25.412Z,99722.41
2022-11-18T17:57:31.101Z,99720.65
2022-11-18T18:00:38.472Z,99719.02
2022-11-18T18:03:45.010Z,99722.26
2022-11-18T18:06:50.065Z,99717.20
2022-11-18T18:09:56.151Z,99719.01
2022-11-18T18:13:20.902Z,99711.41
2022-11-18T18:16:30.206Z,99728.71
2022-11-18T18:19:37.512Z,99719.68
2022-11-18T18:22:43.630Z,99727.55
2022-11-18T18:25:49.550Z,99727.75
2022-11-18T18:28:55.847Z,99705.95
2022-11-18T18:32:01.445Z,99711.84
2022-11-18T18:35:07.250Z,99706.02
2022-11-18T18:38:12.955Z,99703.52
2022-11-18T18:41:24.051Z,99704.95
2022-11-18T18:44:29.890Z,99710.36
2022-11-18T18:47:35.372Z,99711.33
2022-11-18T18:50:41.443Z,99699.00
2022-11-18T18:53:49.167Z,99705.45
2022-11-18T18:56:58.598Z,99708.48
2022-11-18T19:00:03.927Z,99702.64
2022-11-18T19:03:11.241Z,99684.53
2022-11-18T19:06:54.891Z,99698.60
2022-11-18T19:09:41.258Z,99691.61
2022-11-18T19:12:54.178Z,99678.38
2022-11-18T19:15:59.703Z,99669.62
2022-11-18T19:19:06.486Z,99681.00
2022-11-18T19:22:12.070Z,99692.28
2022-11-18T19:25:17.714Z,99697.89
2022-11-18T19:28:25.141Z,99702.26
2022-11-18T19:35:16.646Z,99728.33
2022-11-18T19:38:22.511Z,99735.23
2022-11-18T19:41:28.453Z,99732.05
2022-11-18T19:44:34.035Z,99716.92
2022-11-18T19:47:39.334Z,99715.59
2022-11-18T19:50:45.154Z,99702.79
2022-11-18T19:53:51.369Z,99708.89
2022-11-18T19:56:57.667Z,99689.00
2022-11-18T20:00:03.590Z,99697.95
2022-11-18T20:03:09.081Z,99672.84
2022-11-18T20:09:08.356Z,99689.49
2022-11-18T20:12:14.057Z,99687.41
2022-11-18T20:15:20.811Z,99686.52
2022-11-18T20:18:28.032Z,99700.02
2022-11-18T20:21:35.228Z,99701.73
2022-11-18T20:24:40.806Z,99714.31
2022-11-18T20:27:46.144Z,99719.97
2022-11-18T20:30:52.022Z,99719.39
2022-11-18T20:34:00.387Z,99713.81
2022-11-18T20:37:05.957Z,99724.08
2022-11-18T20:40:11.286Z,99719.56
2022-11-18T20:43:22.490Z,99703.55
2022-11-18T20:50:04.629Z,99706.55
2022-11-18T20:53:10.157Z,99698.30
2022-11-18T20:56:15.693Z,99706.37
2022-11-18T20:59:21.616Z,99703.64
2022-11-18T21:02:27.443Z,99691.86
2022-11-18T21:05:32.748Z,99687.05
2022-11-18T21:08:39.356Z,99667.80
2022-11-18T21:11:47.434Z,99665.96
2022-11-18T21:14:55.616Z,99675.86
2022-11-18T21:18:01.187Z,99684.91
2022-11-18T21:21:25.303Z,99685.59
2022-11-18T21:24:36.833Z,99689.17
2022-11-18T21:27:42.242Z,99683.83
2022-11-18T21:30:48.078Z,99668.01
2022-11-18T21:33:54.280Z,99642.33
2022-11-18T21:37:00.115Z,99656.10
2022-11-18T21:40:05.552Z,99636.31
2022-11-18T21:43:11.295Z,99644.42
2022-11-18T21:46:25.544Z,99658.36
2022-11-18T21:49:30.990Z,99664.13
2022-11-18T21:52:36.497Z,99640.08
2022-11-18T21:55:42.266Z,99641.95
2022-11-18T21:58:47.171Z,99623.50
2022-11-18T22:01:52.059Z,99627.99
2022-11-18T22:05:01.550Z,99610.77
2022-11-18T22:08:06.855Z,99592.20
2022-11-18T22:11:14.461Z,99604.86
2022-11-18T22:14:19.895Z,99597.20
